Main page
Satellite images 10-day forecastsClimateMarine weather Cyclones Lightning AirportsFAQ Newsletter About
Weather : Europe Africa North America South America Asia Australia-Oceania Others
Languages Contact

Pontianak, Indonesia

Supadio Airport

latitude: 00-09S, longitude: 109-24E, elevation: 3 m


METAR: WIOO 281130Z 00000KT 5000 FU BKN011 26/25 Q1009 NOSIG
TAF: missing

Time: 19:40 (12:40 UTC)

Current weather observation

The report was made 1 hour and 10 minutes ago, at 11:30 UTC
Calm wind
Temperature 26°C
Humidity 94%
Pressure 1009 hPa
Visibility: 5000 m
Broken clouds at a height of 1100 ft
smoke

Change units
The information on this site is subject to a disclaimer
Weather : Europe Africa North America South America Asia Australia-Oceania Others
Satellite images 10-day forecastsClimateMarine weather Cyclones Lightning AirportsFAQ Languages Contact Newsletter About